ダッカ の空港の天気 - METARとTAF

シャージャラル国際空港(ダッカ) ( VGHS / DAC ) - バングラデシュ ダッカ
飛行場実況気象(Metar)
観測時間08/14 03:30 BDT (08/13 21:30 UTC)
風向・風速東 5m/s
視程3500m
天気現象煙霧
全天の4割程度の雲 雲底高度 370m
全天の8割程度の雲 雲底高度 3050m
気温27℃
湿度84%
気圧1001hPa
METARVGHS 132130Z 09010KT 3500 HZ SCT012 BKN100 27/24 Q1001 NOSIG
過去の天気等 Google飛行場航空写真 Wunderground天気予報

過去48時間のMETAR

飛行場予報(TAF)
発表時間: 8/13 23:00 BDT (8/13 17:00 UTC)
予報対象時間: 14日0時 BDT ~ 15日6時 BDT
風向・風速南南東 4m/s
視程3500m
天気現象煙霧
全天の4割程度の雲 雲底高度 460m
全天の8割程度の雲 雲底高度 3050m
14日4時 BDT ~ 14日6時 BDT に徐々に
風向・風速南南東 4m/s
視程3200m
天気現象煙霧
全天の4割程度の雲 雲底高度 370m
全天の8割程度の雲 雲底高度 3050m
14日6時 BDT ~ 14日14時 BDT に一時的に
風向・風速南 10m/s
視程2000m
14日15時 BDT ~ 14日17時 BDT に徐々に
風向・風速東南東 5m/s
視程4000m
天気現象煙霧
全天の4割程度の雲 雲底高度 460m
全天の8割程度の雲 雲底高度 3050m
TAF VGHS 131700Z 1318/1424 16008KT 3500 HZ SCT015 BKN100
BECMG 1322/1324 16007KT 3200 HZ SCT012 BKN100
TEMPO 1400/1408 17020KT 2000 RA/TSRA BKN008 FEW025CB OVC090
BECMG 1409/1411 12010KT 4000 HZ SCT015 BKN100